Livermore, CA

8:36 AM PST on December 21, 2014 (GMT -0800)
San Jose International | Change Station
CLOSE
Current Station
Airport
Location: San Jose,
Elevation: 59 ft
Nearby Weather Stations

Elev 59 ft 37.36 °N, 121.92 °W | Updated 43 minutes ago

Mostly Cloudy
Mostly Cloudy
56 °F
Feels Like 56 °F
N
4
Wind Variable Wind from SSE

Today
High -- | Low -- °F
--% Chance of Precip.
Yesterday
High -- | Low -- °F
Precip. -- in
7:18 AM 4:52 PM
Waning Crescent, 0% visible
Pressure 30.29 in
Visibility 10.0 miles
Clouds Few 400 ft
Mostly Cloudy 1500 ft
Overcast 2000 ft
Dew Point 53 °F
Humidity 90%
Rainfall 0.00 in
Snow Depth Not available.
UV 0 out of 12
Pollen 4.00 out of 12
Air Quality Not available.
Flu Activity Not available.
METAR KSJC 211553Z 15003KT 10SM FEW004 BKN015 OVC020 13/12 A3029 RMK AO2 SLP255 VIS LWR N-E T01330117

More Conditions Fewer Conditions

Pressure 30.29 in
Visibility 10.0 miles
Clouds Few 400 ft
Mostly Cloudy 1500 ft
Overcast 2000 ft
Dew Point 53 °F
Humidity 90%
Rainfall 0.00 in
Snow Depth Not available.
UV 0 out of 12
Pollen 4.00 out of 12
Air Quality Not available.
Flu Activity Not available.
METAR KSJC 211553Z 15003KT 10SM FEW004 BKN015 OVC020 13/12 A3029 RMK AO2 SLP255 VIS LWR N-E T01330117

More Conditions Fewer Conditions

10-Day Weather Forecast

Almanac

Astronomy

Dec. 21, 2014 Rise Set
Actual Time
Civil Twilight
Nautical Twilight
Astronomical Twilight
Moon
Length of Visible Light
Length of Day
Tomorrow will be .
, % of the Moon is Illuminated

Today's Extremes

State Highs State Lows

Community

WunderPhotos

Upload Photos

1,779,430 photos uploaded!

WunderBlogs® & News

Nearby

Air Quality

  Air Quality AQ Index Pollutant
Not available.

Snow Depth

Station Depth Elevation

Earthquake Activity

City Distance Mag. Time & Date
Minimum magnitude displayed is 2.5.

Coastal Water Temperatures

Place Temperature

Nearby Weather Stations